<?xml version="1.0" encoding="UTF-8" standalone="no" ?>
<gpx xmlns="http://www.topografix.com/GPX/1/1" xmlns:xsi="http://www.w3.org/2001/XMLSchema-instance" xsi:schemaLocation="http://www.topografix.com/GPX/1/1 http://www.topografix.com/GPX/1/1/gpx.xsd" version="1.1" creator="VisuGPX - https://www.visugpx.com">
  <metadata>
    <name>boucle beleymas 9km</name>
  </metadata>
  <trk>
    <name><![CDATA[randogps24-476]]></name>
    <trkseg>
      <trkpt lat="44.9933" lon="0.50592">
        <ele>123.19</ele>
        <time>2018-12-14T13:01:25Z</time>
      </trkpt>
      <trkpt lat="44.9933" lon="0.50592">
        <ele>124.63</ele>
        <time>2018-12-14T13:01:26Z</time>
      </trkpt>
      <trkpt lat="44.9933" lon="0.50591">
        <ele>124.63</ele>
        <time>2018-12-14T13:01:27Z</time>
      </trkpt>
      <trkpt lat="44.9933" lon="0.50591">
        <ele>123.19</ele>
        <time>2018-12-14T13:01:30Z</time>
      </trkpt>
      <trkpt lat="44.99333" lon="0.50596">
        <ele>123.67</ele>
        <time>2018-12-14T13:01:47Z</time>
      </trkpt>
      <trkpt lat="44.99327" lon="0.50593">
        <ele>124.15</ele>
        <time>2018-12-14T13:02:01Z</time>
      </trkpt>
      <trkpt lat="44.9932" lon="0.50581">
        <ele>124.15</ele>
        <time>2018-12-14T13:02:19Z</time>
      </trkpt>
      <trkpt lat="44.9932" lon="0.50582">
        <ele>124.15</ele>
        <time>2018-12-14T13:02:48Z</time>
      </trkpt>
      <trkpt lat="44.99319" lon="0.50581">
        <ele>124.15</ele>
        <time>2018-12-14T13:03:15Z</time>
      </trkpt>
      <trkpt lat="44.99319" lon="0.50576">
        <ele>124.15</ele>
        <time>2018-12-14T13:03:43Z</time>
      </trkpt>
      <trkpt lat="44.99319" lon="0.50573">
        <ele>124.15</ele>
        <time>2018-12-14T13:03:48Z</time>
      </trkpt>
      <trkpt lat="44.9932" lon="0.50558">
        <ele>124.15</ele>
        <time>2018-12-14T13:03:58Z</time>
      </trkpt>
      <trkpt lat="44.99327" lon="0.50541">
        <ele>124.15</ele>
        <time>2018-12-14T13:04:13Z</time>
      </trkpt>
      <trkpt lat="44.9934" lon="0.50522">
        <ele>125.59</ele>
        <time>2018-12-14T13:04:30Z</time>
      </trkpt>
      <trkpt lat="44.99349" lon="0.50501">
        <ele>127.51</ele>
        <time>2018-12-14T13:04:45Z</time>
      </trkpt>
      <trkpt lat="44.99354" lon="0.50487">
        <ele>128.95</ele>
        <time>2018-12-14T13:04:58Z</time>
      </trkpt>
      <trkpt lat="44.99366" lon="0.50475">
        <ele>131.36</ele>
        <time>2018-12-14T13:05:14Z</time>
      </trkpt>
      <trkpt lat="44.9938" lon="0.5046">
        <ele>133.76</ele>
        <time>2018-12-14T13:05:29Z</time>
      </trkpt>
      <trkpt lat="44.99392" lon="0.50442">
        <ele>136.16</ele>
        <time>2018-12-14T13:05:43Z</time>
      </trkpt>
      <trkpt lat="44.99401" lon="0.50425">
        <ele>139.05</ele>
        <time>2018-12-14T13:05:59Z</time>
      </trkpt>
      <trkpt lat="44.99408" lon="0.50411">
        <ele>141.93</ele>
        <time>2018-12-14T13:06:13Z</time>
      </trkpt>
      <trkpt lat="44.99418" lon="0.50397">
        <ele>144.34</ele>
        <time>2018-12-14T13:06:27Z</time>
      </trkpt>
      <trkpt lat="44.99428" lon="0.50381">
        <ele>146.74</ele>
        <time>2018-12-14T13:06:42Z</time>
      </trkpt>
      <trkpt lat="44.99436" lon="0.50365">
        <ele>149.14</ele>
        <time>2018-12-14T13:06:56Z</time>
      </trkpt>
      <trkpt lat="44.99444" lon="0.50344">
        <ele>151.54</ele>
        <time>2018-12-14T13:07:13Z</time>
      </trkpt>
      <trkpt lat="44.9945" lon="0.50326">
        <ele>152.99</ele>
        <time>2018-12-14T13:07:28Z</time>
      </trkpt>
      <trkpt lat="44.99457" lon="0.50305">
        <ele>154.91</ele>
        <time>2018-12-14T13:07:44Z</time>
      </trkpt>
      <trkpt lat="44.99464" lon="0.5029">
        <ele>155.87</ele>
        <time>2018-12-14T13:07:58Z</time>
      </trkpt>
      <trkpt lat="44.99465" lon="0.50287">
        <ele>155.87</ele>
        <time>2018-12-14T13:08:00Z</time>
      </trkpt>
      <trkpt lat="44.99468" lon="0.50282">
        <ele>156.35</ele>
        <time>2018-12-14T13:08:04Z</time>
      </trkpt>
      <trkpt lat="44.99477" lon="0.50266">
        <ele>156.35</ele>
        <time>2018-12-14T13:08:20Z</time>
      </trkpt>
      <trkpt lat="44.99486" lon="0.50248">
        <ele>156.35</ele>
        <time>2018-12-14T13:08:33Z</time>
      </trkpt>
      <trkpt lat="44.99487" lon="0.50245">
        <ele>156.35</ele>
        <time>2018-12-14T13:08:35Z</time>
      </trkpt>
      <trkpt lat="44.99501" lon="0.50224">
        <ele>153.47</ele>
        <time>2018-12-14T13:08:53Z</time>
      </trkpt>
      <trkpt lat="44.99513" lon="0.50209">
        <ele>152.51</ele>
        <time>2018-12-14T13:09:07Z</time>
      </trkpt>
      <trkpt lat="44.99515" lon="0.50203">
        <ele>151.54</ele>
        <time>2018-12-14T13:09:23Z</time>
      </trkpt>
      <trkpt lat="44.99515" lon="0.50201">
        <ele>151.54</ele>
        <time>2018-12-14T13:09:45Z</time>
      </trkpt>
      <trkpt lat="44.99518" lon="0.50196">
        <ele>151.54</ele>
        <time>2018-12-14T13:10:07Z</time>
      </trkpt>
      <trkpt lat="44.99518" lon="0.50196">
        <ele>151.06</ele>
        <time>2018-12-14T13:10:14Z</time>
      </trkpt>
      <trkpt lat="44.99501" lon="0.50186">
        <ele>152.51</ele>
        <time>2018-12-14T13:10:30Z</time>
      </trkpt>
      <trkpt lat="44.99495" lon="0.50181">
        <ele>152.99</ele>
        <time>2018-12-14T13:10:46Z</time>
      </trkpt>
      <trkpt lat="44.9948" lon="0.50171">
        <ele>153.47</ele>
        <time>2018-12-14T13:11:01Z</time>
      </trkpt>
      <trkpt lat="44.99466" lon="0.50161">
        <ele>153.47</ele>
        <time>2018-12-14T13:11:17Z</time>
      </trkpt>
      <trkpt lat="44.9945" lon="0.50149">
        <ele>154.43</ele>
        <time>2018-12-14T13:11:35Z</time>
      </trkpt>
      <trkpt lat="44.99434" lon="0.50137">
        <ele>155.39</ele>
        <time>2018-12-14T13:11:52Z</time>
      </trkpt>
      <trkpt lat="44.99418" lon="0.50124">
        <ele>156.35</ele>
        <time>2018-12-14T13:12:08Z</time>
      </trkpt>
      <trkpt lat="44.99402" lon="0.50106">
        <ele>156.83</ele>
        <time>2018-12-14T13:12:27Z</time>
      </trkpt>
      <trkpt lat="44.99393" lon="0.50098">
        <ele>155.87</ele>
        <time>2018-12-14T13:12:37Z</time>
      </trkpt>
      <trkpt lat="44.9938" lon="0.50086">
        <ele>154.91</ele>
        <time>2018-12-14T13:12:53Z</time>
      </trkpt>
      <trkpt lat="44.99373" lon="0.50077">
        <ele>154.43</ele>
        <time>2018-12-14T13:13:07Z</time>
      </trkpt>
      <trkpt lat="44.99382" lon="0.5005">
        <ele>155.87</ele>
        <time>2018-12-14T13:13:25Z</time>
      </trkpt>
      <trkpt lat="44.99392" lon="0.50025">
        <ele>157.31</ele>
        <time>2018-12-14T13:13:42Z</time>
      </trkpt>
      <trkpt lat="44.99393" lon="0.50022">
        <ele>157.31</ele>
        <time>2018-12-14T13:13:44Z</time>
      </trkpt>
      <trkpt lat="44.99405" lon="0.49996">
        <ele>159.24</ele>
        <time>2018-12-14T13:14:02Z</time>
      </trkpt>
      <trkpt lat="44.99414" lon="0.49974">
        <ele>161.16</ele>
        <time>2018-12-14T13:14:17Z</time>
      </trkpt>
      <trkpt lat="44.99423" lon="0.49954">
        <ele>162.12</ele>
        <time>2018-12-14T13:14:31Z</time>
      </trkpt>
      <trkpt lat="44.99428" lon="0.4994">
        <ele>162.6</ele>
        <time>2018-12-14T13:14:40Z</time>
      </trkpt>
      <trkpt lat="44.99429" lon="0.49938">
        <ele>162.6</ele>
        <time>2018-12-14T13:14:42Z</time>
      </trkpt>
      <trkpt lat="44.99437" lon="0.49924">
        <ele>162.6</ele>
        <time>2018-12-14T13:15:00Z</time>
      </trkpt>
      <trkpt lat="44.99439" lon="0.49912">
        <ele>162.6</ele>
        <time>2018-12-14T13:15:18Z</time>
      </trkpt>
      <trkpt lat="44.99441" lon="0.49908">
        <ele>161.16</ele>
        <time>2018-12-14T13:15:22Z</time>
      </trkpt>
      <trkpt lat="44.9945" lon="0.49885">
        <ele>158.75</ele>
        <time>2018-12-14T13:15:40Z</time>
      </trkpt>
      <trkpt lat="44.99463" lon="0.49859">
        <ele>156.35</ele>
        <time>2018-12-14T13:15:56Z</time>
      </trkpt>
      <trkpt lat="44.99478" lon="0.4984">
        <ele>153.95</ele>
        <time>2018-12-14T13:16:11Z</time>
      </trkpt>
      <trkpt lat="44.99484" lon="0.49824">
        <ele>152.03</ele>
        <time>2018-12-14T13:16:26Z</time>
      </trkpt>
      <trkpt lat="44.99491" lon="0.49802">
        <ele>150.58</ele>
        <time>2018-12-14T13:16:41Z</time>
      </trkpt>
      <trkpt lat="44.99497" lon="0.49792">
        <ele>148.66</ele>
        <time>2018-12-14T13:16:49Z</time>
      </trkpt>
      <trkpt lat="44.99501" lon="0.49785">
        <ele>148.18</ele>
        <time>2018-12-14T13:16:53Z</time>
      </trkpt>
      <trkpt lat="44.99511" lon="0.49764">
        <ele>145.3</ele>
        <time>2018-12-14T13:17:09Z</time>
      </trkpt>
      <trkpt lat="44.99516" lon="0.4974">
        <ele>144.34</ele>
        <time>2018-12-14T13:17:24Z</time>
      </trkpt>
      <trkpt lat="44.99525" lon="0.49726">
        <ele>143.85</ele>
        <time>2018-12-14T13:17:36Z</time>
      </trkpt>
      <trkpt lat="44.9953" lon="0.49708">
        <ele>142.89</ele>
        <time>2018-12-14T13:17:50Z</time>
      </trkpt>
      <trkpt lat="44.99534" lon="0.4969">
        <ele>141.45</ele>
        <time>2018-12-14T13:18:03Z</time>
      </trkpt>
      <trkpt lat="44.99533" lon="0.49655">
        <ele>139.05</ele>
        <time>2018-12-14T13:18:23Z</time>
      </trkpt>
      <trkpt lat="44.99535" lon="0.49631">
        <ele>138.09</ele>
        <time>2018-12-14T13:18:36Z</time>
      </trkpt>
      <trkpt lat="44.99535" lon="0.49602">
        <ele>138.09</ele>
        <time>2018-12-14T13:18:50Z</time>
      </trkpt>
      <trkpt lat="44.99532" lon="0.49566">
        <ele>138.09</ele>
        <time>2018-12-14T13:19:07Z</time>
      </trkpt>
      <trkpt lat="44.99531" lon="0.49555">
        <ele>139.53</ele>
        <time>2018-12-14T13:19:12Z</time>
      </trkpt>
      <trkpt lat="44.99526" lon="0.49517">
        <ele>142.41</ele>
        <time>2018-12-14T13:19:32Z</time>
      </trkpt>
      <trkpt lat="44.99527" lon="0.49488">
        <ele>142.89</ele>
        <time>2018-12-14T13:19:49Z</time>
      </trkpt>
      <trkpt lat="44.99534" lon="0.49466">
        <ele>143.37</ele>
        <time>2018-12-14T13:20:04Z</time>
      </trkpt>
      <trkpt lat="44.99535" lon="0.49444">
        <ele>140.49</ele>
        <time>2018-12-14T13:20:20Z</time>
      </trkpt>
      <trkpt lat="44.99536" lon="0.49428">
        <ele>138.57</ele>
        <time>2018-12-14T13:20:31Z</time>
      </trkpt>
      <trkpt lat="44.99536" lon="0.49401">
        <ele>136.64</ele>
        <time>2018-12-14T13:20:47Z</time>
      </trkpt>
      <trkpt lat="44.99527" lon="0.49384">
        <ele>135.2</ele>
        <time>2018-12-14T13:21:01Z</time>
      </trkpt>
      <trkpt lat="44.99522" lon="0.49364">
        <ele>134.24</ele>
        <time>2018-12-14T13:21:15Z</time>
      </trkpt>
      <trkpt lat="44.99519" lon="0.49347">
        <ele>134.24</ele>
        <time>2018-12-14T13:21:28Z</time>
      </trkpt>
      <trkpt lat="44.99524" lon="0.49329">
        <ele>133.76</ele>
        <time>2018-12-14T13:21:40Z</time>
      </trkpt>
      <trkpt lat="44.99532" lon="0.49314">
        <ele>135.2</ele>
        <time>2018-12-14T13:21:53Z</time>
      </trkpt>
      <trkpt lat="44.99541" lon="0.49292">
        <ele>135.68</ele>
        <time>2018-12-14T13:22:08Z</time>
      </trkpt>
      <trkpt lat="44.99549" lon="0.49273">
        <ele>136.16</ele>
        <time>2018-12-14T13:22:21Z</time>
      </trkpt>
      <trkpt lat="44.99557" lon="0.49253">
        <ele>137.13</ele>
        <time>2018-12-14T13:22:34Z</time>
      </trkpt>
      <trkpt lat="44.99563" lon="0.49231">
        <ele>138.57</ele>
        <time>2018-12-14T13:22:48Z</time>
      </trkpt>
      <trkpt lat="44.99569" lon="0.4921">
        <ele>139.53</ele>
        <time>2018-12-14T13:23:02Z</time>
      </trkpt>
      <trkpt lat="44.99581" lon="0.4918">
        <ele>140.01</ele>
        <time>2018-12-14T13:23:18Z</time>
      </trkpt>
      <trkpt lat="44.99591" lon="0.49149">
        <ele>138.09</ele>
        <time>2018-12-14T13:23:34Z</time>
      </trkpt>
      <trkpt lat="44.99601" lon="0.49132">
        <ele>135.2</ele>
        <time>2018-12-14T13:23:49Z</time>
      </trkpt>
      <trkpt lat="44.99602" lon="0.4913">
        <ele>134.72</ele>
        <time>2018-12-14T13:23:51Z</time>
      </trkpt>
      <trkpt lat="44.99609" lon="0.49102">
        <ele>131.36</ele>
        <time>2018-12-14T13:24:09Z</time>
      </trkpt>
      <trkpt lat="44.99617" lon="0.49077">
        <ele>129.92</ele>
        <time>2018-12-14T13:24:25Z</time>
      </trkpt>
      <trkpt lat="44.99621" lon="0.49061">
        <ele>129.92</ele>
        <time>2018-12-14T13:24:35Z</time>
      </trkpt>
      <trkpt lat="44.99629" lon="0.49042">
        <ele>132.8</ele>
        <time>2018-12-14T13:24:50Z</time>
      </trkpt>
      <trkpt lat="44.99631" lon="0.4904">
        <ele>133.28</ele>
        <time>2018-12-14T13:24:52Z</time>
      </trkpt>
      <trkpt lat="44.99642" lon="0.49022">
        <ele>135.68</ele>
        <time>2018-12-14T13:25:06Z</time>
      </trkpt>
      <trkpt lat="44.9965" lon="0.49006">
        <ele>137.13</ele>
        <time>2018-12-14T13:25:21Z</time>
      </trkpt>
      <trkpt lat="44.99655" lon="0.48989">
        <ele>139.53</ele>
        <time>2018-12-14T13:25:34Z</time>
      </trkpt>
      <trkpt lat="44.99661" lon="0.48964">
        <ele>141.93</ele>
        <time>2018-12-14T13:25:50Z</time>
      </trkpt>
      <trkpt lat="44.99661" lon="0.48961">
        <ele>141.93</ele>
        <time>2018-12-14T13:25:52Z</time>
      </trkpt>
      <trkpt lat="44.99663" lon="0.48951">
        <ele>141.93</ele>
        <time>2018-12-14T13:26:07Z</time>
      </trkpt>
      <trkpt lat="44.99665" lon="0.48944">
        <ele>141.93</ele>
        <time>2018-12-14T13:26:28Z</time>
      </trkpt>
      <trkpt lat="44.99664" lon="0.48944">
        <ele>141.93</ele>
        <time>2018-12-14T13:26:30Z</time>
      </trkpt>
      <trkpt lat="44.99688" lon="0.4894">
        <ele>140.01</ele>
        <time>2018-12-14T13:26:48Z</time>
      </trkpt>
      <trkpt lat="44.99708" lon="0.48938">
        <ele>138.57</ele>
        <time>2018-12-14T13:27:03Z</time>
      </trkpt>
      <trkpt lat="44.99729" lon="0.48936">
        <ele>137.13</ele>
        <time>2018-12-14T13:27:19Z</time>
      </trkpt>
      <trkpt lat="44.99753" lon="0.48935">
        <ele>135.68</ele>
        <time>2018-12-14T13:27:35Z</time>
      </trkpt>
      <trkpt lat="44.99778" lon="0.48929">
        <ele>133.28</ele>
        <time>2018-12-14T13:27:53Z</time>
      </trkpt>
      <trkpt lat="44.99802" lon="0.4892">
        <ele>131.36</ele>
        <time>2018-12-14T13:28:10Z</time>
      </trkpt>
      <trkpt lat="44.9981" lon="0.4892">
        <ele>130.4</ele>
        <time>2018-12-14T13:28:23Z</time>
      </trkpt>
      <trkpt lat="44.99817" lon="0.48919">
        <ele>129.43</ele>
        <time>2018-12-14T13:28:29Z</time>
      </trkpt>
      <trkpt lat="44.99844" lon="0.48928">
        <ele>127.99</ele>
        <time>2018-12-14T13:28:48Z</time>
      </trkpt>
      <trkpt lat="44.99866" lon="0.48944">
        <ele>126.55</ele>
        <time>2018-12-14T13:29:08Z</time>
      </trkpt>
      <trkpt lat="44.99888" lon="0.48961">
        <ele>125.11</ele>
        <time>2018-12-14T13:29:28Z</time>
      </trkpt>
      <trkpt lat="44.99892" lon="0.4896">
        <ele>124.63</ele>
        <time>2018-12-14T13:29:38Z</time>
      </trkpt>
      <trkpt lat="44.99887" lon="0.4895">
        <ele>124.63</ele>
        <time>2018-12-14T13:29:52Z</time>
      </trkpt>
      <trkpt lat="44.99888" lon="0.48953">
        <ele>124.63</ele>
        <time>2018-12-14T13:30:03Z</time>
      </trkpt>
      <trkpt lat="44.99889" lon="0.48957">
        <ele>124.63</ele>
        <time>2018-12-14T13:30:06Z</time>
      </trkpt>
      <trkpt lat="44.99893" lon="0.4896">
        <ele>124.63</ele>
        <time>2018-12-14T13:30:10Z</time>
      </trkpt>
      <trkpt lat="44.99906" lon="0.48942">
        <ele>123.67</ele>
        <time>2018-12-14T13:30:27Z</time>
      </trkpt>
      <trkpt lat="44.99908" lon="0.4894">
        <ele>123.67</ele>
        <time>2018-12-14T13:30:32Z</time>
      </trkpt>
      <trkpt lat="44.99905" lon="0.4894">
        <ele>123.19</ele>
        <time>2018-12-14T13:30:48Z</time>
      </trkpt>
      <trkpt lat="44.99905" lon="0.48939">
        <ele>123.19</ele>
        <time>2018-12-14T13:31:07Z</time>
      </trkpt>
      <trkpt lat="44.99904" lon="0.4894">
        <ele>123.19</ele>
        <time>2018-12-14T13:31:30Z</time>
      </trkpt>
      <trkpt lat="44.99906" lon="0.48937">
        <ele>123.19</ele>
        <time>2018-12-14T13:32:01Z</time>
      </trkpt>
      <trkpt lat="44.99905" lon="0.48936">
        <ele>123.19</ele>
        <time>2018-12-14T13:32:09Z</time>
      </trkpt>
      <trkpt lat="44.999" lon="0.48931">
        <ele>123.19</ele>
        <time>2018-12-14T13:32:14Z</time>
      </trkpt>
      <trkpt lat="44.99885" lon="0.48912">
        <ele>123.67</ele>
        <time>2018-12-14T13:32:31Z</time>
      </trkpt>
      <trkpt lat="44.99867" lon="0.48888">
        <ele>123.67</ele>
        <time>2018-12-14T13:32:49Z</time>
      </trkpt>
      <trkpt lat="44.99845" lon="0.48858">
        <ele>123.67</ele>
        <time>2018-12-14T13:33:10Z</time>
      </trkpt>
      <trkpt lat="44.99835" lon="0.48844">
        <ele>125.11</ele>
        <time>2018-12-14T13:33:20Z</time>
      </trkpt>
      <trkpt lat="44.99813" lon="0.4882">
        <ele>126.07</ele>
        <time>2018-12-14T13:33:40Z</time>
      </trkpt>
      <trkpt lat="44.99792" lon="0.48796">
        <ele>127.03</ele>
        <time>2018-12-14T13:34:00Z</time>
      </trkpt>
      <trkpt lat="44.9978" lon="0.48776">
        <ele>128.47</ele>
        <time>2018-12-14T13:34:15Z</time>
      </trkpt>
      <trkpt lat="44.9977" lon="0.48751">
        <ele>129.92</ele>
        <time>2018-12-14T13:34:31Z</time>
      </trkpt>
      <trkpt lat="44.9976" lon="0.48729">
        <ele>129.92</ele>
        <time>2018-12-14T13:34:47Z</time>
      </trkpt>
      <trkpt lat="44.99755" lon="0.48719">
        <ele>129.92</ele>
        <time>2018-12-14T13:34:53Z</time>
      </trkpt>
      <trkpt lat="44.99743" lon="0.48692">
        <ele>130.4</ele>
        <time>2018-12-14T13:35:11Z</time>
      </trkpt>
      <trkpt lat="44.99732" lon="0.48666">
        <ele>131.84</ele>
        <time>2018-12-14T13:35:27Z</time>
      </trkpt>
      <trkpt lat="44.99719" lon="0.48639">
        <ele>131.84</ele>
        <time>2018-12-14T13:35:44Z</time>
      </trkpt>
      <trkpt lat="44.99702" lon="0.48617">
        <ele>131.84</ele>
        <time>2018-12-14T13:36:02Z</time>
      </trkpt>
      <trkpt lat="44.99687" lon="0.48603">
        <ele>131.84</ele>
        <time>2018-12-14T13:36:16Z</time>
      </trkpt>
      <trkpt lat="44.99677" lon="0.48584">
        <ele>131.84</ele>
        <time>2018-12-14T13:36:31Z</time>
      </trkpt>
      <trkpt lat="44.99671" lon="0.48567">
        <ele>131.84</ele>
        <time>2018-12-14T13:36:41Z</time>
      </trkpt>
      <trkpt lat="44.99664" lon="0.48531">
        <ele>131.84</ele>
        <time>2018-12-14T13:36:58Z</time>
      </trkpt>
      <trkpt lat="44.99657" lon="0.48499">
        <ele>132.8</ele>
        <time>2018-12-14T13:37:15Z</time>
      </trkpt>
      <trkpt lat="44.99647" lon="0.48471">
        <ele>133.76</ele>
        <time>2018-12-14T13:37:32Z</time>
      </trkpt>
      <trkpt lat="44.99634" lon="0.4844">
        <ele>135.68</ele>
        <time>2018-12-14T13:37:52Z</time>
      </trkpt>
      <trkpt lat="44.99623" lon="0.48411">
        <ele>137.13</ele>
        <time>2018-12-14T13:38:10Z</time>
      </trkpt>
      <trkpt lat="44.99615" lon="0.48384">
        <ele>138.57</ele>
        <time>2018-12-14T13:38:27Z</time>
      </trkpt>
      <trkpt lat="44.9961" lon="0.48362">
        <ele>138.57</ele>
        <time>2018-12-14T13:38:43Z</time>
      </trkpt>
      <trkpt lat="44.99603" lon="0.48336">
        <ele>138.57</ele>
        <time>2018-12-14T13:38:59Z</time>
      </trkpt>
      <trkpt lat="44.99595" lon="0.48306">
        <ele>137.13</ele>
        <time>2018-12-14T13:39:16Z</time>
      </trkpt>
      <trkpt lat="44.99589" lon="0.48281">
        <ele>136.64</ele>
        <time>2018-12-14T13:39:32Z</time>
      </trkpt>
      <trkpt lat="44.99589" lon="0.48279">
        <ele>136.64</ele>
        <time>2018-12-14T13:39:33Z</time>
      </trkpt>
      <trkpt lat="44.99582" lon="0.48252">
        <ele>136.64</ele>
        <time>2018-12-14T13:39:47Z</time>
      </trkpt>
      <trkpt lat="44.99575" lon="0.48221">
        <ele>136.64</ele>
        <time>2018-12-14T13:40:02Z</time>
      </trkpt>
      <trkpt lat="44.99574" lon="0.48215">
        <ele>138.09</ele>
        <time>2018-12-14T13:40:05Z</time>
      </trkpt>
      <trkpt lat="44.99569" lon="0.48186">
        <ele>140.01</ele>
        <time>2018-12-14T13:40:22Z</time>
      </trkpt>
      <trkpt lat="44.99566" lon="0.4816">
        <ele>142.41</ele>
        <time>2018-12-14T13:40:37Z</time>
      </trkpt>
      <trkpt lat="44.9956" lon="0.4813">
        <ele>144.82</ele>
        <time>2018-12-14T13:40:57Z</time>
      </trkpt>
      <trkpt lat="44.99556" lon="0.48103">
        <ele>145.3</ele>
        <time>2018-12-14T13:41:13Z</time>
      </trkpt>
      <trkpt lat="44.99553" lon="0.48069">
        <ele>145.3</ele>
        <time>2018-12-14T13:41:32Z</time>
      </trkpt>
      <trkpt lat="44.99553" lon="0.48039">
        <ele>145.78</ele>
        <time>2018-12-14T13:41:48Z</time>
      </trkpt>
      <trkpt lat="44.99551" lon="0.48006">
        <ele>146.26</ele>
        <time>2018-12-14T13:42:06Z</time>
      </trkpt>
      <trkpt lat="44.99548" lon="0.47977">
        <ele>146.74</ele>
        <time>2018-12-14T13:42:22Z</time>
      </trkpt>
      <trkpt lat="44.99545" lon="0.4794">
        <ele>147.7</ele>
        <time>2018-12-14T13:42:41Z</time>
      </trkpt>
      <trkpt lat="44.99541" lon="0.47908">
        <ele>147.7</ele>
        <time>2018-12-14T13:43:00Z</time>
      </trkpt>
      <trkpt lat="44.99541" lon="0.47902">
        <ele>146.26</ele>
        <time>2018-12-14T13:43:04Z</time>
      </trkpt>
      <trkpt lat="44.99539" lon="0.47886">
        <ele>145.78</ele>
        <time>2018-12-14T13:43:13Z</time>
      </trkpt>
      <trkpt lat="44.99536" lon="0.47855">
        <ele>144.82</ele>
        <time>2018-12-14T13:43:31Z</time>
      </trkpt>
      <trkpt lat="44.99535" lon="0.47833">
        <ele>143.85</ele>
        <time>2018-12-14T13:43:43Z</time>
      </trkpt>
      <trkpt lat="44.99535" lon="0.47831">
        <ele>143.85</ele>
        <time>2018-12-14T13:43:44Z</time>
      </trkpt>
      <trkpt lat="44.99533" lon="0.4781">
        <ele>143.37</ele>
        <time>2018-12-14T13:43:56Z</time>
      </trkpt>
      <trkpt lat="44.99533" lon="0.47804">
        <ele>142.89</ele>
        <time>2018-12-14T13:43:59Z</time>
      </trkpt>
      <trkpt lat="44.99533" lon="0.47794">
        <ele>142.41</ele>
        <time>2018-12-14T13:44:04Z</time>
      </trkpt>
      <trkpt lat="44.9953" lon="0.47757">
        <ele>141.45</ele>
        <time>2018-12-14T13:44:22Z</time>
      </trkpt>
      <trkpt lat="44.99527" lon="0.47721">
        <ele>140.01</ele>
        <time>2018-12-14T13:44:41Z</time>
      </trkpt>
      <trkpt lat="44.99524" lon="0.47682">
        <ele>138.09</ele>
        <time>2018-12-14T13:45:01Z</time>
      </trkpt>
      <trkpt lat="44.99523" lon="0.47646">
        <ele>136.16</ele>
        <time>2018-12-14T13:45:20Z</time>
      </trkpt>
      <trkpt lat="44.99522" lon="0.47614">
        <ele>134.24</ele>
        <time>2018-12-14T13:45:37Z</time>
      </trkpt>
      <trkpt lat="44.99524" lon="0.47608">
        <ele>134.24</ele>
        <time>2018-12-14T13:45:50Z</time>
      </trkpt>
      <trkpt lat="44.99517" lon="0.47602">
        <ele>134.24</ele>
        <time>2018-12-14T13:46:06Z</time>
      </trkpt>
      <trkpt lat="44.99493" lon="0.47596">
        <ele>133.76</ele>
        <time>2018-12-14T13:46:24Z</time>
      </trkpt>
      <trkpt lat="44.99472" lon="0.47594">
        <ele>133.76</ele>
        <time>2018-12-14T13:46:40Z</time>
      </trkpt>
      <trkpt lat="44.99452" lon="0.4759">
        <ele>133.76</ele>
        <time>2018-12-14T13:46:55Z</time>
      </trkpt>
      <trkpt lat="44.99426" lon="0.47593">
        <ele>133.76</ele>
        <time>2018-12-14T13:47:14Z</time>
      </trkpt>
      <trkpt lat="44.99407" lon="0.47595">
        <ele>135.2</ele>
        <time>2018-12-14T13:47:29Z</time>
      </trkpt>
      <trkpt lat="44.99385" lon="0.47594">
        <ele>135.68</ele>
        <time>2018-12-14T13:47:47Z</time>
      </trkpt>
      <trkpt lat="44.99363" lon="0.47594">
        <ele>137.13</ele>
        <time>2018-12-14T13:48:04Z</time>
      </trkpt>
      <trkpt lat="44.99345" lon="0.47599">
        <ele>138.57</ele>
        <time>2018-12-14T13:48:19Z</time>
      </trkpt>
      <trkpt lat="44.99323" lon="0.47599">
        <ele>140.97</ele>
        <time>2018-12-14T13:48:37Z</time>
      </trkpt>
      <trkpt lat="44.99303" lon="0.47599">
        <ele>143.37</ele>
        <time>2018-12-14T13:48:54Z</time>
      </trkpt>
      <trkpt lat="44.99302" lon="0.47598">
        <ele>143.37</ele>
        <time>2018-12-14T13:48:55Z</time>
      </trkpt>
      <trkpt lat="44.99282" lon="0.47593">
        <ele>145.3</ele>
        <time>2018-12-14T13:49:12Z</time>
      </trkpt>
      <trkpt lat="44.99262" lon="0.47586">
        <ele>146.74</ele>
        <time>2018-12-14T13:49:31Z</time>
      </trkpt>
      <trkpt lat="44.99246" lon="0.47577">
        <ele>147.22</ele>
        <time>2018-12-14T13:49:47Z</time>
      </trkpt>
      <trkpt lat="44.99225" lon="0.47571">
        <ele>146.26</ele>
        <time>2018-12-14T13:50:02Z</time>
      </trkpt>
      <trkpt lat="44.99197" lon="0.47557">
        <ele>145.3</ele>
        <time>2018-12-14T13:50:22Z</time>
      </trkpt>
      <trkpt lat="44.99176" lon="0.47549">
        <ele>144.34</ele>
        <time>2018-12-14T13:50:37Z</time>
      </trkpt>
      <trkpt lat="44.9915" lon="0.47544">
        <ele>143.37</ele>
        <time>2018-12-14T13:50:54Z</time>
      </trkpt>
      <trkpt lat="44.99122" lon="0.47535">
        <ele>141.45</ele>
        <time>2018-12-14T13:51:14Z</time>
      </trkpt>
      <trkpt lat="44.99101" lon="0.47524">
        <ele>140.49</ele>
        <time>2018-12-14T13:51:30Z</time>
      </trkpt>
      <trkpt lat="44.99078" lon="0.4751">
        <ele>139.53</ele>
        <time>2018-12-14T13:51:48Z</time>
      </trkpt>
      <trkpt lat="44.99051" lon="0.47499">
        <ele>139.05</ele>
        <time>2018-12-14T13:52:07Z</time>
      </trkpt>
      <trkpt lat="44.99029" lon="0.47492">
        <ele>138.57</ele>
        <time>2018-12-14T13:52:24Z</time>
      </trkpt>
      <trkpt lat="44.99007" lon="0.47482">
        <ele>138.09</ele>
        <time>2018-12-14T13:52:41Z</time>
      </trkpt>
      <trkpt lat="44.98983" lon="0.47473">
        <ele>137.61</ele>
        <time>2018-12-14T13:52:58Z</time>
      </trkpt>
      <trkpt lat="44.98958" lon="0.47459">
        <ele>136.64</ele>
        <time>2018-12-14T13:53:17Z</time>
      </trkpt>
      <trkpt lat="44.98934" lon="0.47438">
        <ele>136.16</ele>
        <time>2018-12-14T13:53:38Z</time>
      </trkpt>
      <trkpt lat="44.98918" lon="0.47413">
        <ele>135.68</ele>
        <time>2018-12-14T13:53:57Z</time>
      </trkpt>
      <trkpt lat="44.98896" lon="0.47381">
        <ele>133.28</ele>
        <time>2018-12-14T13:54:18Z</time>
      </trkpt>
      <trkpt lat="44.98876" lon="0.47356">
        <ele>130.88</ele>
        <time>2018-12-14T13:54:37Z</time>
      </trkpt>
      <trkpt lat="44.98859" lon="0.47334">
        <ele>127.99</ele>
        <time>2018-12-14T13:54:55Z</time>
      </trkpt>
      <trkpt lat="44.98842" lon="0.47314">
        <ele>124.63</ele>
        <time>2018-12-14T13:55:12Z</time>
      </trkpt>
      <trkpt lat="44.98825" lon="0.47311">
        <ele>122.22</ele>
        <time>2018-12-14T13:55:26Z</time>
      </trkpt>
      <trkpt lat="44.98809" lon="0.47314">
        <ele>118.86</ele>
        <time>2018-12-14T13:55:41Z</time>
      </trkpt>
      <trkpt lat="44.98805" lon="0.47314">
        <ele>118.86</ele>
        <time>2018-12-14T13:55:44Z</time>
      </trkpt>
      <trkpt lat="44.988" lon="0.47315">
        <ele>117.42</ele>
        <time>2018-12-14T13:55:48Z</time>
      </trkpt>
      <trkpt lat="44.98778" lon="0.47315">
        <ele>115.01</ele>
        <time>2018-12-14T13:56:07Z</time>
      </trkpt>
      <trkpt lat="44.98754" lon="0.47313">
        <ele>112.61</ele>
        <time>2018-12-14T13:56:24Z</time>
      </trkpt>
      <trkpt lat="44.98738" lon="0.47309">
        <ele>110.21</ele>
        <time>2018-12-14T13:56:39Z</time>
      </trkpt>
      <trkpt lat="44.98722" lon="0.47301">
        <ele>108.29</ele>
        <time>2018-12-14T13:56:54Z</time>
      </trkpt>
      <trkpt lat="44.98718" lon="0.47298">
        <ele>107.32</ele>
        <time>2018-12-14T13:56:59Z</time>
      </trkpt>
      <trkpt lat="44.98701" lon="0.47286">
        <ele>105.88</ele>
        <time>2018-12-14T13:57:15Z</time>
      </trkpt>
      <trkpt lat="44.98679" lon="0.47268">
        <ele>104.44</ele>
        <time>2018-12-14T13:57:32Z</time>
      </trkpt>
      <trkpt lat="44.98655" lon="0.47255">
        <ele>103</ele>
        <time>2018-12-14T13:57:49Z</time>
      </trkpt>
      <trkpt lat="44.98631" lon="0.47246">
        <ele>101.56</ele>
        <time>2018-12-14T13:58:08Z</time>
      </trkpt>
      <trkpt lat="44.98609" lon="0.47241">
        <ele>100.6</ele>
        <time>2018-12-14T13:58:26Z</time>
      </trkpt>
      <trkpt lat="44.98585" lon="0.47232">
        <ele>97.71</ele>
        <time>2018-12-14T13:58:45Z</time>
      </trkpt>
      <trkpt lat="44.98565" lon="0.47223">
        <ele>96.27</ele>
        <time>2018-12-14T13:59:02Z</time>
      </trkpt>
      <trkpt lat="44.98557" lon="0.47223">
        <ele>95.79</ele>
        <time>2018-12-14T13:59:16Z</time>
      </trkpt>
      <trkpt lat="44.98553" lon="0.47221">
        <ele>95.31</ele>
        <time>2018-12-14T13:59:31Z</time>
      </trkpt>
      <trkpt lat="44.9855" lon="0.47222">
        <ele>94.83</ele>
        <time>2018-12-14T13:59:48Z</time>
      </trkpt>
      <trkpt lat="44.98547" lon="0.47224">
        <ele>94.35</ele>
        <time>2018-12-14T14:00:11Z</time>
      </trkpt>
      <trkpt lat="44.98546" lon="0.47229">
        <ele>94.35</ele>
        <time>2018-12-14T14:00:50Z</time>
      </trkpt>
      <trkpt lat="44.98546" lon="0.47226">
        <ele>94.35</ele>
        <time>2018-12-14T14:01:12Z</time>
      </trkpt>
      <trkpt lat="44.98547" lon="0.47226">
        <ele>94.35</ele>
        <time>2018-12-14T14:01:34Z</time>
      </trkpt>
      <trkpt lat="44.98551" lon="0.47225">
        <ele>95.79</ele>
        <time>2018-12-14T14:01:58Z</time>
      </trkpt>
      <trkpt lat="44.98547" lon="0.47227">
        <ele>95.79</ele>
        <time>2018-12-14T14:02:17Z</time>
      </trkpt>
      <trkpt lat="44.98539" lon="0.47231">
        <ele>96.27</ele>
        <time>2018-12-14T14:02:34Z</time>
      </trkpt>
      <trkpt lat="44.98529" lon="0.47224">
        <ele>94.83</ele>
        <time>2018-12-14T14:02:47Z</time>
      </trkpt>
      <trkpt lat="44.98523" lon="0.47213">
        <ele>93.39</ele>
        <time>2018-12-14T14:03:03Z</time>
      </trkpt>
      <trkpt lat="44.98511" lon="0.47213">
        <ele>93.39</ele>
        <time>2018-12-14T14:03:17Z</time>
      </trkpt>
      <trkpt lat="44.98489" lon="0.47219">
        <ele>93.87</ele>
        <time>2018-12-14T14:03:35Z</time>
      </trkpt>
      <trkpt lat="44.98469" lon="0.47222">
        <ele>93.87</ele>
        <time>2018-12-14T14:03:52Z</time>
      </trkpt>
      <trkpt lat="44.9845" lon="0.4723">
        <ele>93.87</ele>
        <time>2018-12-14T14:04:08Z</time>
      </trkpt>
      <trkpt lat="44.98428" lon="0.47233">
        <ele>93.87</ele>
        <time>2018-12-14T14:04:25Z</time>
      </trkpt>
      <trkpt lat="44.98402" lon="0.47233">
        <ele>93.87</ele>
        <time>2018-12-14T14:04:44Z</time>
      </trkpt>
      <trkpt lat="44.98379" lon="0.47248">
        <ele>94.83</ele>
        <time>2018-12-14T14:05:03Z</time>
      </trkpt>
      <trkpt lat="44.98371" lon="0.47257">
        <ele>94.83</ele>
        <time>2018-12-14T14:05:11Z</time>
      </trkpt>
      <trkpt lat="44.98355" lon="0.47276">
        <ele>95.79</ele>
        <time>2018-12-14T14:05:28Z</time>
      </trkpt>
      <trkpt lat="44.98342" lon="0.47305">
        <ele>95.79</ele>
        <time>2018-12-14T14:05:45Z</time>
      </trkpt>
      <trkpt lat="44.98336" lon="0.47334">
        <ele>96.27</ele>
        <time>2018-12-14T14:06:00Z</time>
      </trkpt>
      <trkpt lat="44.9833" lon="0.47372">
        <ele>96.75</ele>
        <time>2018-12-14T14:06:19Z</time>
      </trkpt>
      <trkpt lat="44.98325" lon="0.47398">
        <ele>97.23</ele>
        <time>2018-12-14T14:06:38Z</time>
      </trkpt>
      <trkpt lat="44.98316" lon="0.47424">
        <ele>97.71</ele>
        <time>2018-12-14T14:06:54Z</time>
      </trkpt>
      <trkpt lat="44.983" lon="0.4745">
        <ele>98.19</ele>
        <time>2018-12-14T14:07:13Z</time>
      </trkpt>
      <trkpt lat="44.98298" lon="0.47458">
        <ele>98.67</ele>
        <time>2018-12-14T14:07:29Z</time>
      </trkpt>
      <trkpt lat="44.98298" lon="0.47458">
        <ele>98.67</ele>
        <time>2018-12-14T14:07:49Z</time>
      </trkpt>
      <trkpt lat="44.983" lon="0.47459">
        <ele>99.15</ele>
        <time>2018-12-14T14:08:09Z</time>
      </trkpt>
      <trkpt lat="44.983" lon="0.47458">
        <ele>99.15</ele>
        <time>2018-12-14T14:08:23Z</time>
      </trkpt>
      <trkpt lat="44.98299" lon="0.47461">
        <ele>99.63</ele>
        <time>2018-12-14T14:08:48Z</time>
      </trkpt>
      <trkpt lat="44.98301" lon="0.47457">
        <ele>99.63</ele>
        <time>2018-12-14T14:09:18Z</time>
      </trkpt>
      <trkpt lat="44.98299" lon="0.47461">
        <ele>100.11</ele>
        <time>2018-12-14T14:09:43Z</time>
      </trkpt>
      <trkpt lat="44.98289" lon="0.47469">
        <ele>100.11</ele>
        <time>2018-12-14T14:10:09Z</time>
      </trkpt>
      <trkpt lat="44.9827" lon="0.47489">
        <ele>100.6</ele>
        <time>2018-12-14T14:10:26Z</time>
      </trkpt>
      <trkpt lat="44.98252" lon="0.47508">
        <ele>100.6</ele>
        <time>2018-12-14T14:10:43Z</time>
      </trkpt>
      <trkpt lat="44.98231" lon="0.47533">
        <ele>101.08</ele>
        <time>2018-12-14T14:11:02Z</time>
      </trkpt>
      <trkpt lat="44.98209" lon="0.47559">
        <ele>101.56</ele>
        <time>2018-12-14T14:11:23Z</time>
      </trkpt>
      <trkpt lat="44.98189" lon="0.47587">
        <ele>102.52</ele>
        <time>2018-12-14T14:11:43Z</time>
      </trkpt>
      <trkpt lat="44.98166" lon="0.47607">
        <ele>103.48</ele>
        <time>2018-12-14T14:12:02Z</time>
      </trkpt>
      <trkpt lat="44.98152" lon="0.47614">
        <ele>103.96</ele>
        <time>2018-12-14T14:12:18Z</time>
      </trkpt>
      <trkpt lat="44.98151" lon="0.47615">
        <ele>103.96</ele>
        <time>2018-12-14T14:12:19Z</time>
      </trkpt>
      <trkpt lat="44.98143" lon="0.47619">
        <ele>104.44</ele>
        <time>2018-12-14T14:12:26Z</time>
      </trkpt>
      <trkpt lat="44.98122" lon="0.47633">
        <ele>105.4</ele>
        <time>2018-12-14T14:12:44Z</time>
      </trkpt>
      <trkpt lat="44.98131" lon="0.47664">
        <ele>104.44</ele>
        <time>2018-12-14T14:13:00Z</time>
      </trkpt>
      <trkpt lat="44.98148" lon="0.47699">
        <ele>103.96</ele>
        <time>2018-12-14T14:13:19Z</time>
      </trkpt>
      <trkpt lat="44.98164" lon="0.47737">
        <ele>104.44</ele>
        <time>2018-12-14T14:13:41Z</time>
      </trkpt>
      <trkpt lat="44.98179" lon="0.47767">
        <ele>104.44</ele>
        <time>2018-12-14T14:14:00Z</time>
      </trkpt>
      <trkpt lat="44.98191" lon="0.47796">
        <ele>105.88</ele>
        <time>2018-12-14T14:14:18Z</time>
      </trkpt>
      <trkpt lat="44.98208" lon="0.4782">
        <ele>107.32</ele>
        <time>2018-12-14T14:14:36Z</time>
      </trkpt>
      <trkpt lat="44.98224" lon="0.47835">
        <ele>108.77</ele>
        <time>2018-12-14T14:14:52Z</time>
      </trkpt>
      <trkpt lat="44.98233" lon="0.47845">
        <ele>109.73</ele>
        <time>2018-12-14T14:15:02Z</time>
      </trkpt>
      <trkpt lat="44.98235" lon="0.47863">
        <ele>110.21</ele>
        <time>2018-12-14T14:15:16Z</time>
      </trkpt>
      <trkpt lat="44.98226" lon="0.47878">
        <ele>110.21</ele>
        <time>2018-12-14T14:15:30Z</time>
      </trkpt>
      <trkpt lat="44.98223" lon="0.47879">
        <ele>110.21</ele>
        <time>2018-12-14T14:15:32Z</time>
      </trkpt>
      <trkpt lat="44.98201" lon="0.47894">
        <ele>110.21</ele>
        <time>2018-12-14T14:15:49Z</time>
      </trkpt>
      <trkpt lat="44.98184" lon="0.47907">
        <ele>110.21</ele>
        <time>2018-12-14T14:16:04Z</time>
      </trkpt>
      <trkpt lat="44.98167" lon="0.47922">
        <ele>110.21</ele>
        <time>2018-12-14T14:16:18Z</time>
      </trkpt>
      <trkpt lat="44.98152" lon="0.47936">
        <ele>110.21</ele>
        <time>2018-12-14T14:16:31Z</time>
      </trkpt>
      <trkpt lat="44.98138" lon="0.47946">
        <ele>109.73</ele>
        <time>2018-12-14T14:16:44Z</time>
      </trkpt>
      <trkpt lat="44.98123" lon="0.47957">
        <ele>109.73</ele>
        <time>2018-12-14T14:16:59Z</time>
      </trkpt>
      <trkpt lat="44.9811" lon="0.47971">
        <ele>109.73</ele>
        <time>2018-12-14T14:17:13Z</time>
      </trkpt>
      <trkpt lat="44.98098" lon="0.47981">
        <ele>110.21</ele>
        <time>2018-12-14T14:17:25Z</time>
      </trkpt>
      <trkpt lat="44.98083" lon="0.47995">
        <ele>110.21</ele>
        <time>2018-12-14T14:17:38Z</time>
      </trkpt>
      <trkpt lat="44.98068" lon="0.4801">
        <ele>110.21</ele>
        <time>2018-12-14T14:17:51Z</time>
      </trkpt>
      <trkpt lat="44.98049" lon="0.48028">
        <ele>109.73</ele>
        <time>2018-12-14T14:18:05Z</time>
      </trkpt>
      <trkpt lat="44.98033" lon="0.48045">
        <ele>110.21</ele>
        <time>2018-12-14T14:18:21Z</time>
      </trkpt>
      <trkpt lat="44.98023" lon="0.48062">
        <ele>110.21</ele>
        <time>2018-12-14T14:18:34Z</time>
      </trkpt>
      <trkpt lat="44.9801" lon="0.4808">
        <ele>110.69</ele>
        <time>2018-12-14T14:18:47Z</time>
      </trkpt>
      <trkpt lat="44.98" lon="0.48098">
        <ele>110.69</ele>
        <time>2018-12-14T14:19:01Z</time>
      </trkpt>
      <trkpt lat="44.97988" lon="0.48117">
        <ele>111.17</ele>
        <time>2018-12-14T14:19:15Z</time>
      </trkpt>
      <trkpt lat="44.97976" lon="0.48139">
        <ele>111.17</ele>
        <time>2018-12-14T14:19:31Z</time>
      </trkpt>
      <trkpt lat="44.97966" lon="0.48149">
        <ele>111.65</ele>
        <time>2018-12-14T14:19:43Z</time>
      </trkpt>
      <trkpt lat="44.97949" lon="0.48164">
        <ele>112.61</ele>
        <time>2018-12-14T14:20:00Z</time>
      </trkpt>
      <trkpt lat="44.97935" lon="0.48177">
        <ele>114.53</ele>
        <time>2018-12-14T14:20:15Z</time>
      </trkpt>
      <trkpt lat="44.97919" lon="0.48195">
        <ele>116.94</ele>
        <time>2018-12-14T14:20:32Z</time>
      </trkpt>
      <trkpt lat="44.97904" lon="0.48207">
        <ele>119.34</ele>
        <time>2018-12-14T14:20:48Z</time>
      </trkpt>
      <trkpt lat="44.97889" lon="0.48218">
        <ele>120.78</ele>
        <time>2018-12-14T14:21:03Z</time>
      </trkpt>
      <trkpt lat="44.97876" lon="0.48225">
        <ele>122.22</ele>
        <time>2018-12-14T14:21:16Z</time>
      </trkpt>
      <trkpt lat="44.97858" lon="0.48238">
        <ele>123.67</ele>
        <time>2018-12-14T14:21:33Z</time>
      </trkpt>
      <trkpt lat="44.97843" lon="0.4826">
        <ele>124.15</ele>
        <time>2018-12-14T14:21:49Z</time>
      </trkpt>
      <trkpt lat="44.9783" lon="0.48281">
        <ele>124.15</ele>
        <time>2018-12-14T14:22:05Z</time>
      </trkpt>
      <trkpt lat="44.97818" lon="0.48301">
        <ele>124.15</ele>
        <time>2018-12-14T14:22:19Z</time>
      </trkpt>
      <trkpt lat="44.97812" lon="0.48312">
        <ele>124.15</ele>
        <time>2018-12-14T14:22:26Z</time>
      </trkpt>
      <trkpt lat="44.97799" lon="0.48335">
        <ele>125.11</ele>
        <time>2018-12-14T14:22:42Z</time>
      </trkpt>
      <trkpt lat="44.97787" lon="0.48358">
        <ele>126.07</ele>
        <time>2018-12-14T14:22:56Z</time>
      </trkpt>
      <trkpt lat="44.9778" lon="0.48373">
        <ele>126.55</ele>
        <time>2018-12-14T14:23:04Z</time>
      </trkpt>
      <trkpt lat="44.97766" lon="0.48396">
        <ele>127.03</ele>
        <time>2018-12-14T14:23:21Z</time>
      </trkpt>
      <trkpt lat="44.97756" lon="0.48413">
        <ele>127.03</ele>
        <time>2018-12-14T14:23:32Z</time>
      </trkpt>
      <trkpt lat="44.97745" lon="0.48436">
        <ele>127.03</ele>
        <time>2018-12-14T14:23:47Z</time>
      </trkpt>
      <trkpt lat="44.9773" lon="0.48463">
        <ele>127.99</ele>
        <time>2018-12-14T14:24:05Z</time>
      </trkpt>
      <trkpt lat="44.97715" lon="0.4849">
        <ele>129.43</ele>
        <time>2018-12-14T14:24:23Z</time>
      </trkpt>
      <trkpt lat="44.97701" lon="0.48517">
        <ele>129.43</ele>
        <time>2018-12-14T14:24:40Z</time>
      </trkpt>
      <trkpt lat="44.9769" lon="0.48545">
        <ele>129.43</ele>
        <time>2018-12-14T14:24:56Z</time>
      </trkpt>
      <trkpt lat="44.97678" lon="0.48569">
        <ele>128.47</ele>
        <time>2018-12-14T14:25:12Z</time>
      </trkpt>
      <trkpt lat="44.97664" lon="0.48601">
        <ele>127.99</ele>
        <time>2018-12-14T14:25:31Z</time>
      </trkpt>
      <trkpt lat="44.97658" lon="0.48632">
        <ele>128.47</ele>
        <time>2018-12-14T14:25:47Z</time>
      </trkpt>
      <trkpt lat="44.97654" lon="0.48668">
        <ele>128.47</ele>
        <time>2018-12-14T14:26:05Z</time>
      </trkpt>
      <trkpt lat="44.97651" lon="0.48699">
        <ele>128.47</ele>
        <time>2018-12-14T14:26:20Z</time>
      </trkpt>
      <trkpt lat="44.97648" lon="0.48729">
        <ele>128.47</ele>
        <time>2018-12-14T14:26:36Z</time>
      </trkpt>
      <trkpt lat="44.97642" lon="0.48761">
        <ele>130.4</ele>
        <time>2018-12-14T14:26:55Z</time>
      </trkpt>
      <trkpt lat="44.97637" lon="0.48791">
        <ele>131.84</ele>
        <time>2018-12-14T14:27:12Z</time>
      </trkpt>
      <trkpt lat="44.97631" lon="0.48828">
        <ele>132.8</ele>
        <time>2018-12-14T14:27:31Z</time>
      </trkpt>
      <trkpt lat="44.97625" lon="0.48863">
        <ele>133.28</ele>
        <time>2018-12-14T14:27:50Z</time>
      </trkpt>
      <trkpt lat="44.97627" lon="0.48897">
        <ele>133.28</ele>
        <time>2018-12-14T14:28:09Z</time>
      </trkpt>
      <trkpt lat="44.97635" lon="0.48928">
        <ele>132.32</ele>
        <time>2018-12-14T14:28:26Z</time>
      </trkpt>
      <trkpt lat="44.97639" lon="0.48955">
        <ele>133.76</ele>
        <time>2018-12-14T14:28:41Z</time>
      </trkpt>
      <trkpt lat="44.97638" lon="0.48984">
        <ele>133.76</ele>
        <time>2018-12-14T14:28:58Z</time>
      </trkpt>
      <trkpt lat="44.97633" lon="0.49015">
        <ele>134.24</ele>
        <time>2018-12-14T14:29:16Z</time>
      </trkpt>
      <trkpt lat="44.97626" lon="0.49046">
        <ele>134.24</ele>
        <time>2018-12-14T14:29:33Z</time>
      </trkpt>
      <trkpt lat="44.97618" lon="0.49081">
        <ele>134.24</ele>
        <time>2018-12-14T14:29:51Z</time>
      </trkpt>
      <trkpt lat="44.97614" lon="0.49114">
        <ele>134.72</ele>
        <time>2018-12-14T14:30:09Z</time>
      </trkpt>
      <trkpt lat="44.97615" lon="0.49116">
        <ele>134.72</ele>
        <time>2018-12-14T14:30:29Z</time>
      </trkpt>
      <trkpt lat="44.97616" lon="0.49118">
        <ele>134.72</ele>
        <time>2018-12-14T14:30:31Z</time>
      </trkpt>
      <trkpt lat="44.97618" lon="0.4912">
        <ele>134.72</ele>
        <time>2018-12-14T14:30:33Z</time>
      </trkpt>
      <trkpt lat="44.97621" lon="0.49122">
        <ele>133.76</ele>
        <time>2018-12-14T14:30:36Z</time>
      </trkpt>
      <trkpt lat="44.97628" lon="0.49124">
        <ele>133.28</ele>
        <time>2018-12-14T14:30:43Z</time>
      </trkpt>
      <trkpt lat="44.97632" lon="0.49127">
        <ele>132.8</ele>
        <time>2018-12-14T14:30:47Z</time>
      </trkpt>
      <trkpt lat="44.97649" lon="0.49138">
        <ele>130.88</ele>
        <time>2018-12-14T14:31:03Z</time>
      </trkpt>
      <trkpt lat="44.97668" lon="0.49156">
        <ele>128.47</ele>
        <time>2018-12-14T14:31:20Z</time>
      </trkpt>
      <trkpt lat="44.9767" lon="0.49159">
        <ele>128.47</ele>
        <time>2018-12-14T14:31:22Z</time>
      </trkpt>
      <trkpt lat="44.97674" lon="0.49167">
        <ele>127.99</ele>
        <time>2018-12-14T14:31:27Z</time>
      </trkpt>
      <trkpt lat="44.9769" lon="0.49193">
        <ele>127.99</ele>
        <time>2018-12-14T14:31:42Z</time>
      </trkpt>
      <trkpt lat="44.97698" lon="0.49212">
        <ele>127.99</ele>
        <time>2018-12-14T14:31:55Z</time>
      </trkpt>
      <trkpt lat="44.97699" lon="0.49214">
        <ele>127.99</ele>
        <time>2018-12-14T14:31:56Z</time>
      </trkpt>
      <trkpt lat="44.9771" lon="0.49242">
        <ele>127.99</ele>
        <time>2018-12-14T14:32:12Z</time>
      </trkpt>
      <trkpt lat="44.97715" lon="0.49251">
        <ele>129.43</ele>
        <time>2018-12-14T14:32:18Z</time>
      </trkpt>
      <trkpt lat="44.97724" lon="0.49276">
        <ele>129.92</ele>
        <time>2018-12-14T14:32:32Z</time>
      </trkpt>
      <trkpt lat="44.97729" lon="0.49287">
        <ele>129.92</ele>
        <time>2018-12-14T14:32:38Z</time>
      </trkpt>
      <trkpt lat="44.97739" lon="0.49314">
        <ele>130.4</ele>
        <time>2018-12-14T14:32:54Z</time>
      </trkpt>
      <trkpt lat="44.97753" lon="0.49348">
        <ele>130.88</ele>
        <time>2018-12-14T14:33:13Z</time>
      </trkpt>
      <trkpt lat="44.97765" lon="0.49375">
        <ele>130.88</ele>
        <time>2018-12-14T14:33:30Z</time>
      </trkpt>
      <trkpt lat="44.97779" lon="0.49403">
        <ele>129.92</ele>
        <time>2018-12-14T14:33:47Z</time>
      </trkpt>
      <trkpt lat="44.97795" lon="0.49434">
        <ele>128.95</ele>
        <time>2018-12-14T14:34:05Z</time>
      </trkpt>
      <trkpt lat="44.97816" lon="0.49456">
        <ele>128.95</ele>
        <time>2018-12-14T14:34:24Z</time>
      </trkpt>
      <trkpt lat="44.97839" lon="0.49469">
        <ele>128.95</ele>
        <time>2018-12-14T14:34:41Z</time>
      </trkpt>
      <trkpt lat="44.97863" lon="0.49484">
        <ele>128.95</ele>
        <time>2018-12-14T14:35:00Z</time>
      </trkpt>
      <trkpt lat="44.97868" lon="0.49488">
        <ele>128.95</ele>
        <time>2018-12-14T14:35:04Z</time>
      </trkpt>
      <trkpt lat="44.97886" lon="0.49502">
        <ele>129.43</ele>
        <time>2018-12-14T14:35:19Z</time>
      </trkpt>
      <trkpt lat="44.97909" lon="0.49518">
        <ele>129.43</ele>
        <time>2018-12-14T14:35:37Z</time>
      </trkpt>
      <trkpt lat="44.97928" lon="0.49532">
        <ele>129.43</ele>
        <time>2018-12-14T14:35:53Z</time>
      </trkpt>
      <trkpt lat="44.97953" lon="0.49552">
        <ele>130.88</ele>
        <time>2018-12-14T14:36:11Z</time>
      </trkpt>
      <trkpt lat="44.97972" lon="0.49582">
        <ele>131.36</ele>
        <time>2018-12-14T14:36:30Z</time>
      </trkpt>
      <trkpt lat="44.97983" lon="0.49611">
        <ele>131.84</ele>
        <time>2018-12-14T14:36:48Z</time>
      </trkpt>
      <trkpt lat="44.97996" lon="0.49642">
        <ele>132.8</ele>
        <time>2018-12-14T14:37:07Z</time>
      </trkpt>
      <trkpt lat="44.98009" lon="0.49669">
        <ele>133.76</ele>
        <time>2018-12-14T14:37:24Z</time>
      </trkpt>
      <trkpt lat="44.98023" lon="0.497">
        <ele>134.72</ele>
        <time>2018-12-14T14:37:42Z</time>
      </trkpt>
      <trkpt lat="44.98035" lon="0.49725">
        <ele>135.68</ele>
        <time>2018-12-14T14:37:57Z</time>
      </trkpt>
      <trkpt lat="44.98044" lon="0.49748">
        <ele>136.16</ele>
        <time>2018-12-14T14:38:12Z</time>
      </trkpt>
      <trkpt lat="44.98056" lon="0.49775">
        <ele>136.16</ele>
        <time>2018-12-14T14:38:28Z</time>
      </trkpt>
      <trkpt lat="44.9807" lon="0.49804">
        <ele>136.64</ele>
        <time>2018-12-14T14:38:45Z</time>
      </trkpt>
      <trkpt lat="44.98083" lon="0.49832">
        <ele>137.61</ele>
        <time>2018-12-14T14:39:02Z</time>
      </trkpt>
      <trkpt lat="44.98094" lon="0.49857">
        <ele>138.57</ele>
        <time>2018-12-14T14:39:17Z</time>
      </trkpt>
      <trkpt lat="44.98103" lon="0.49888">
        <ele>139.05</ele>
        <time>2018-12-14T14:39:35Z</time>
      </trkpt>
      <trkpt lat="44.98116" lon="0.49919">
        <ele>140.01</ele>
        <time>2018-12-14T14:39:55Z</time>
      </trkpt>
      <trkpt lat="44.98129" lon="0.49943">
        <ele>140.97</ele>
        <time>2018-12-14T14:40:12Z</time>
      </trkpt>
      <trkpt lat="44.98144" lon="0.49963">
        <ele>141.93</ele>
        <time>2018-12-14T14:40:28Z</time>
      </trkpt>
      <trkpt lat="44.98157" lon="0.49985">
        <ele>142.89</ele>
        <time>2018-12-14T14:40:44Z</time>
      </trkpt>
      <trkpt lat="44.98167" lon="0.50008">
        <ele>143.85</ele>
        <time>2018-12-14T14:40:59Z</time>
      </trkpt>
      <trkpt lat="44.98179" lon="0.50038">
        <ele>145.78</ele>
        <time>2018-12-14T14:41:18Z</time>
      </trkpt>
      <trkpt lat="44.98187" lon="0.50044">
        <ele>146.74</ele>
        <time>2018-12-14T14:41:29Z</time>
      </trkpt>
      <trkpt lat="44.98204" lon="0.50031">
        <ele>147.22</ele>
        <time>2018-12-14T14:41:47Z</time>
      </trkpt>
      <trkpt lat="44.98221" lon="0.50018">
        <ele>149.14</ele>
        <time>2018-12-14T14:42:04Z</time>
      </trkpt>
      <trkpt lat="44.98239" lon="0.50007">
        <ele>149.62</ele>
        <time>2018-12-14T14:42:20Z</time>
      </trkpt>
      <trkpt lat="44.98263" lon="0.4999">
        <ele>150.1</ele>
        <time>2018-12-14T14:42:38Z</time>
      </trkpt>
      <trkpt lat="44.98269" lon="0.49982">
        <ele>150.1</ele>
        <time>2018-12-14T14:42:45Z</time>
      </trkpt>
      <trkpt lat="44.98281" lon="0.49967">
        <ele>151.06</ele>
        <time>2018-12-14T14:42:57Z</time>
      </trkpt>
      <trkpt lat="44.98283" lon="0.49965">
        <ele>151.06</ele>
        <time>2018-12-14T14:42:59Z</time>
      </trkpt>
      <trkpt lat="44.98301" lon="0.49942">
        <ele>153.47</ele>
        <time>2018-12-14T14:43:18Z</time>
      </trkpt>
      <trkpt lat="44.98322" lon="0.49938">
        <ele>154.91</ele>
        <time>2018-12-14T14:43:34Z</time>
      </trkpt>
      <trkpt lat="44.98342" lon="0.49962">
        <ele>155.87</ele>
        <time>2018-12-14T14:43:51Z</time>
      </trkpt>
      <trkpt lat="44.98355" lon="0.49995">
        <ele>156.35</ele>
        <time>2018-12-14T14:44:11Z</time>
      </trkpt>
      <trkpt lat="44.9837" lon="0.50022">
        <ele>157.31</ele>
        <time>2018-12-14T14:44:28Z</time>
      </trkpt>
      <trkpt lat="44.98385" lon="0.50052">
        <ele>158.27</ele>
        <time>2018-12-14T14:44:47Z</time>
      </trkpt>
      <trkpt lat="44.98396" lon="0.50076">
        <ele>160.2</ele>
        <time>2018-12-14T14:45:04Z</time>
      </trkpt>
      <trkpt lat="44.98409" lon="0.501">
        <ele>161.64</ele>
        <time>2018-12-14T14:45:22Z</time>
      </trkpt>
      <trkpt lat="44.98422" lon="0.50125">
        <ele>163.56</ele>
        <time>2018-12-14T14:45:40Z</time>
      </trkpt>
      <trkpt lat="44.98434" lon="0.5015">
        <ele>165</ele>
        <time>2018-12-14T14:45:57Z</time>
      </trkpt>
      <trkpt lat="44.98447" lon="0.50176">
        <ele>165.96</ele>
        <time>2018-12-14T14:46:15Z</time>
      </trkpt>
      <trkpt lat="44.98466" lon="0.50197">
        <ele>165.96</ele>
        <time>2018-12-14T14:46:34Z</time>
      </trkpt>
      <trkpt lat="44.98486" lon="0.50215">
        <ele>166.93</ele>
        <time>2018-12-14T14:46:53Z</time>
      </trkpt>
      <trkpt lat="44.98505" lon="0.50234">
        <ele>167.89</ele>
        <time>2018-12-14T14:47:11Z</time>
      </trkpt>
      <trkpt lat="44.98524" lon="0.50254">
        <ele>168.85</ele>
        <time>2018-12-14T14:47:29Z</time>
      </trkpt>
      <trkpt lat="44.98536" lon="0.50269">
        <ele>168.85</ele>
        <time>2018-12-14T14:47:41Z</time>
      </trkpt>
      <trkpt lat="44.98552" lon="0.50287">
        <ele>167.89</ele>
        <time>2018-12-14T14:47:57Z</time>
      </trkpt>
      <trkpt lat="44.98573" lon="0.503">
        <ele>166.93</ele>
        <time>2018-12-14T14:48:15Z</time>
      </trkpt>
      <trkpt lat="44.98599" lon="0.50312">
        <ele>166.45</ele>
        <time>2018-12-14T14:48:36Z</time>
      </trkpt>
      <trkpt lat="44.98625" lon="0.50321">
        <ele>166.45</ele>
        <time>2018-12-14T14:48:56Z</time>
      </trkpt>
      <trkpt lat="44.98637" lon="0.50337">
        <ele>166.45</ele>
        <time>2018-12-14T14:49:11Z</time>
      </trkpt>
      <trkpt lat="44.98639" lon="0.50368">
        <ele>166.45</ele>
        <time>2018-12-14T14:49:29Z</time>
      </trkpt>
      <trkpt lat="44.98644" lon="0.50403">
        <ele>166.93</ele>
        <time>2018-12-14T14:49:46Z</time>
      </trkpt>
      <trkpt lat="44.98651" lon="0.50441">
        <ele>166.93</ele>
        <time>2018-12-14T14:50:04Z</time>
      </trkpt>
      <trkpt lat="44.98655" lon="0.50462">
        <ele>167.89</ele>
        <time>2018-12-14T14:50:19Z</time>
      </trkpt>
      <trkpt lat="44.98661" lon="0.50465">
        <ele>168.37</ele>
        <time>2018-12-14T14:50:33Z</time>
      </trkpt>
      <trkpt lat="44.98672" lon="0.50463">
        <ele>168.37</ele>
        <time>2018-12-14T14:50:47Z</time>
      </trkpt>
      <trkpt lat="44.98681" lon="0.50464">
        <ele>168.37</ele>
        <time>2018-12-14T14:51:00Z</time>
      </trkpt>
      <trkpt lat="44.9869" lon="0.50473">
        <ele>168.37</ele>
        <time>2018-12-14T14:51:10Z</time>
      </trkpt>
      <trkpt lat="44.98692" lon="0.50476">
        <ele>166.93</ele>
        <time>2018-12-14T14:51:12Z</time>
      </trkpt>
      <trkpt lat="44.98697" lon="0.5049">
        <ele>166.45</ele>
        <time>2018-12-14T14:51:22Z</time>
      </trkpt>
      <trkpt lat="44.98709" lon="0.50512">
        <ele>165</ele>
        <time>2018-12-14T14:51:38Z</time>
      </trkpt>
      <trkpt lat="44.98715" lon="0.50517">
        <ele>164.52</ele>
        <time>2018-12-14T14:51:45Z</time>
      </trkpt>
      <trkpt lat="44.98729" lon="0.50528">
        <ele>162.6</ele>
        <time>2018-12-14T14:51:59Z</time>
      </trkpt>
      <trkpt lat="44.98724" lon="0.50546">
        <ele>162.12</ele>
        <time>2018-12-14T14:52:12Z</time>
      </trkpt>
      <trkpt lat="44.98719" lon="0.50563">
        <ele>163.08</ele>
        <time>2018-12-14T14:52:24Z</time>
      </trkpt>
      <trkpt lat="44.98712" lon="0.5058">
        <ele>164.52</ele>
        <time>2018-12-14T14:52:38Z</time>
      </trkpt>
      <trkpt lat="44.9871" lon="0.50596">
        <ele>166.45</ele>
        <time>2018-12-14T14:52:50Z</time>
      </trkpt>
      <trkpt lat="44.98721" lon="0.50611">
        <ele>166.93</ele>
        <time>2018-12-14T14:53:07Z</time>
      </trkpt>
      <trkpt lat="44.98738" lon="0.50628">
        <ele>167.41</ele>
        <time>2018-12-14T14:53:25Z</time>
      </trkpt>
      <trkpt lat="44.98749" lon="0.50638">
        <ele>167.41</ele>
        <time>2018-12-14T14:53:36Z</time>
      </trkpt>
      <trkpt lat="44.98751" lon="0.50639">
        <ele>167.41</ele>
        <time>2018-12-14T14:53:38Z</time>
      </trkpt>
      <trkpt lat="44.98759" lon="0.50645">
        <ele>167.41</ele>
        <time>2018-12-14T14:53:45Z</time>
      </trkpt>
      <trkpt lat="44.98773" lon="0.50656">
        <ele>167.41</ele>
        <time>2018-12-14T14:53:56Z</time>
      </trkpt>
      <trkpt lat="44.98781" lon="0.50663">
        <ele>167.41</ele>
        <time>2018-12-14T14:54:05Z</time>
      </trkpt>
      <trkpt lat="44.98799" lon="0.50679">
        <ele>165.96</ele>
        <time>2018-12-14T14:54:22Z</time>
      </trkpt>
      <trkpt lat="44.98816" lon="0.50696">
        <ele>165.48</ele>
        <time>2018-12-14T14:54:39Z</time>
      </trkpt>
      <trkpt lat="44.98824" lon="0.50703">
        <ele>165.48</ele>
        <time>2018-12-14T14:54:47Z</time>
      </trkpt>
      <trkpt lat="44.98829" lon="0.50712">
        <ele>166.93</ele>
        <time>2018-12-14T14:54:57Z</time>
      </trkpt>
      <trkpt lat="44.98828" lon="0.50717">
        <ele>165.96</ele>
        <time>2018-12-14T14:55:19Z</time>
      </trkpt>
      <trkpt lat="44.98828" lon="0.50716">
        <ele>167.41</ele>
        <time>2018-12-14T14:55:36Z</time>
      </trkpt>
      <trkpt lat="44.98832" lon="0.5072">
        <ele>167.89</ele>
        <time>2018-12-14T14:55:49Z</time>
      </trkpt>
      <trkpt lat="44.98834" lon="0.50725">
        <ele>167.89</ele>
        <time>2018-12-14T14:56:11Z</time>
      </trkpt>
      <trkpt lat="44.98844" lon="0.50741">
        <ele>167.89</ele>
        <time>2018-12-14T14:56:26Z</time>
      </trkpt>
      <trkpt lat="44.98851" lon="0.5075">
        <ele>167.89</ele>
        <time>2018-12-14T14:56:41Z</time>
      </trkpt>
      <trkpt lat="44.98866" lon="0.5075">
        <ele>165.48</ele>
        <time>2018-12-14T14:56:57Z</time>
      </trkpt>
      <trkpt lat="44.98871" lon="0.5075">
        <ele>164.52</ele>
        <time>2018-12-14T14:57:01Z</time>
      </trkpt>
      <trkpt lat="44.9889" lon="0.50751">
        <ele>162.12</ele>
        <time>2018-12-14T14:57:17Z</time>
      </trkpt>
      <trkpt lat="44.98913" lon="0.50751">
        <ele>159.72</ele>
        <time>2018-12-14T14:57:34Z</time>
      </trkpt>
      <trkpt lat="44.98937" lon="0.50753">
        <ele>158.27</ele>
        <time>2018-12-14T14:57:51Z</time>
      </trkpt>
      <trkpt lat="44.98958" lon="0.50752">
        <ele>157.31</ele>
        <time>2018-12-14T14:58:08Z</time>
      </trkpt>
      <trkpt lat="44.98984" lon="0.50752">
        <ele>156.35</ele>
        <time>2018-12-14T14:58:28Z</time>
      </trkpt>
      <trkpt lat="44.99006" lon="0.5075">
        <ele>154.91</ele>
        <time>2018-12-14T14:58:45Z</time>
      </trkpt>
      <trkpt lat="44.9903" lon="0.50748">
        <ele>154.91</ele>
        <time>2018-12-14T14:59:02Z</time>
      </trkpt>
      <trkpt lat="44.99058" lon="0.50749">
        <ele>153.95</ele>
        <time>2018-12-14T14:59:22Z</time>
      </trkpt>
      <trkpt lat="44.99085" lon="0.50747">
        <ele>152.99</ele>
        <time>2018-12-14T14:59:42Z</time>
      </trkpt>
      <trkpt lat="44.99107" lon="0.50745">
        <ele>152.03</ele>
        <time>2018-12-14T14:59:58Z</time>
      </trkpt>
      <trkpt lat="44.99109" lon="0.50744">
        <ele>151.54</ele>
        <time>2018-12-14T15:00:00Z</time>
      </trkpt>
      <trkpt lat="44.99112" lon="0.50738">
        <ele>151.54</ele>
        <time>2018-12-14T15:00:04Z</time>
      </trkpt>
      <trkpt lat="44.99108" lon="0.50705">
        <ele>150.58</ele>
        <time>2018-12-14T15:00:22Z</time>
      </trkpt>
      <trkpt lat="44.99093" lon="0.5067">
        <ele>150.1</ele>
        <time>2018-12-14T15:00:43Z</time>
      </trkpt>
      <trkpt lat="44.99075" lon="0.50641">
        <ele>150.1</ele>
        <time>2018-12-14T15:01:03Z</time>
      </trkpt>
      <trkpt lat="44.9907" lon="0.50631">
        <ele>150.1</ele>
        <time>2018-12-14T15:01:10Z</time>
      </trkpt>
      <trkpt lat="44.99057" lon="0.50596">
        <ele>150.1</ele>
        <time>2018-12-14T15:01:34Z</time>
      </trkpt>
      <trkpt lat="44.99056" lon="0.50591">
        <ele>150.1</ele>
        <time>2018-12-14T15:01:37Z</time>
      </trkpt>
      <trkpt lat="44.99056" lon="0.50583">
        <ele>149.62</ele>
        <time>2018-12-14T15:01:41Z</time>
      </trkpt>
      <trkpt lat="44.99064" lon="0.50556">
        <ele>146.26</ele>
        <time>2018-12-14T15:01:56Z</time>
      </trkpt>
      <trkpt lat="44.99088" lon="0.50538">
        <ele>143.85</ele>
        <time>2018-12-14T15:02:18Z</time>
      </trkpt>
      <trkpt lat="44.99107" lon="0.50528">
        <ele>140.97</ele>
        <time>2018-12-14T15:02:33Z</time>
      </trkpt>
      <trkpt lat="44.99128" lon="0.5052">
        <ele>138.09</ele>
        <time>2018-12-14T15:02:50Z</time>
      </trkpt>
      <trkpt lat="44.99147" lon="0.50517">
        <ele>134.72</ele>
        <time>2018-12-14T15:03:05Z</time>
      </trkpt>
      <trkpt lat="44.99165" lon="0.50513">
        <ele>131.36</ele>
        <time>2018-12-14T15:03:21Z</time>
      </trkpt>
      <trkpt lat="44.99176" lon="0.50512">
        <ele>129.43</ele>
        <time>2018-12-14T15:03:33Z</time>
      </trkpt>
      <trkpt lat="44.99195" lon="0.50506">
        <ele>126.55</ele>
        <time>2018-12-14T15:03:49Z</time>
      </trkpt>
      <trkpt lat="44.99215" lon="0.50496">
        <ele>124.63</ele>
        <time>2018-12-14T15:04:08Z</time>
      </trkpt>
      <trkpt lat="44.9924" lon="0.50475">
        <ele>124.15</ele>
        <time>2018-12-14T15:04:29Z</time>
      </trkpt>
      <trkpt lat="44.99259" lon="0.50458">
        <ele>124.15</ele>
        <time>2018-12-14T15:04:47Z</time>
      </trkpt>
      <trkpt lat="44.99273" lon="0.50448">
        <ele>125.59</ele>
        <time>2018-12-14T15:05:03Z</time>
      </trkpt>
      <trkpt lat="44.99275" lon="0.50452">
        <ele>126.07</ele>
        <time>2018-12-14T15:05:12Z</time>
      </trkpt>
      <trkpt lat="44.99284" lon="0.50475">
        <ele>126.07</ele>
        <time>2018-12-14T15:05:27Z</time>
      </trkpt>
      <trkpt lat="44.99295" lon="0.50507">
        <ele>124.63</ele>
        <time>2018-12-14T15:05:46Z</time>
      </trkpt>
      <trkpt lat="44.99311" lon="0.50533">
        <ele>123.19</ele>
        <time>2018-12-14T15:06:06Z</time>
      </trkpt>
      <trkpt lat="44.99322" lon="0.50562">
        <ele>121.74</ele>
        <time>2018-12-14T15:06:24Z</time>
      </trkpt>
      <trkpt lat="44.99327" lon="0.50579">
        <ele>121.74</ele>
        <time>2018-12-14T15:06:38Z</time>
      </trkpt>
      <trkpt lat="44.99326" lon="0.50579">
        <ele>122.71</ele>
        <time>2018-12-14T15:07:06Z</time>
      </trkpt>
      <trkpt lat="44.99326" lon="0.50578">
        <ele>122.71</ele>
        <time>2018-12-14T15:07:35Z</time>
      </trkpt>
      <trkpt lat="44.99327" lon="0.50579">
        <ele>123.19</ele>
        <time>2018-12-14T15:08:10Z</time>
      </trkpt>
    </trkseg>
  </trk>
</gpx>